Time;durP1;ratioP1;P1;durP2;ratioP2;P2;SDS_P1;SDS_P2;PMS_P1;PMS_P2;Temp;Humidity;BMP_temperature;BMP_pressure;BME280_temperature;BME280_humidity;BME280_pressure;Samples;Min_cycle;Max_cycle;Signal;HPM_P1;HPM_P2
2023/04/03 00:00:45;;;;;;;;;;;;;;;21.31;50.87;96378.58;624838;227;64618;-63
2023/04/03 00:03:12;;;;;;;;;;;;;;;21.30;50.60;96383.13;624812;227;64363;-60
2023/04/03 00:05:40;;;;;;;;;;;;;;;21.31;51.80;96387.41;624827;227;63649;-61
2023/04/03 00:08:09;;;;;;;;;;;;;;;21.30;52.19;96385.80;624865;227;64541;-61
2023/04/03 00:10:37;;;;;;;;;;;;;;;21.31;52.83;96386.59;624785;227;63202;-61
2023/04/03 00:13:05;;;;;;;;;;;;;;;21.28;51.33;96379.97;624821;227;62880;-63
2023/04/03 00:15:32;;;;;;;;;;;;;;;21.29;51.49;96381.55;624815;227;62040;-63
2023/04/03 00:18:00;;;;;;;;;;;;;;;21.27;50.79;96379.16;624820;227;62350;-63
2023/04/03 00:20:27;;;;;;;;;;;;;;;21.28;51.97;96374.63;624853;227;63014;-63
2023/04/03 00:22:55;;;;;;;;;;;;;;;21.28;51.67;96369.28;624775;227;62427;-63
2023/04/03 00:25:23;;;;;;;;;;;;;;;21.27;52.94;96357.77;624836;227;62087;-63
2023/04/03 00:27:50;;;;;;;;;;;;;;;21.26;50.46;96366.09;624817;227;65077;-63
2023/04/03 00:30:19;;;;;;;;;;;;;;;21.27;51.10;96365.79;624819;227;65330;-63
2023/04/03 00:32:49;;;;;;;;;;;;;;;21.26;50.53;96366.09;624831;227;64343;-63
2023/04/03 00:35:16;;;;;;;;;;;;;;;21.26;51.31;96363.42;624810;227;65764;-61
2023/04/03 00:37:44;;;;;;;;;;;;;;;21.26;51.22;96360.75;624803;227;64531;-61
2023/04/03 00:40:13;;;;;;;;;;;;;;;21.25;50.36;96346.59;625570;226;64328;-61
2023/04/03 00:42:41;;;;;;;;;;;;;;;21.25;51.47;96345.78;627064;226;64859;-61
2023/04/03 00:45:13;;;;;;;;;;;;;;;21.25;52.06;96343.11;627098;226;62342;-60
2023/04/03 00:47:41;;;;;;;;;;;;;;;21.24;51.10;96347.66;627144;226;64212;-61
2023/04/03 00:50:09;;;;;;;;;;;;;;;21.24;50.55;96341.53;627030;226;64989;-61
2023/04/03 00:52:38;;;;;;;;;;;;;;;21.24;51.23;96349.55;627085;226;64525;-60
2023/04/03 00:55:07;;;;;;;;;;;;;;;21.24;51.53;96346.88;627104;226;64592;-61
2023/04/03 00:57:35;;;;;;;;;;;;;;;21.24;52.54;96352.22;627067;226;62819;-61
2023/04/03 01:00:04;;;;;;;;;;;;;;;21.23;51.59;96347.97;627140;226;64532;-61
2023/04/03 01:02:32;;;;;;;;;;;;;;;21.22;51.15;96344.48;626920;225;62904;-60
2023/04/03 01:05:00;;;;;;;;;;;;;;;21.22;50.94;96355.16;627065;226;65638;-60
2023/04/03 01:07:29;;;;;;;;;;;;;;;21.22;49.91;96351.70;627093;226;65342;-60
2023/04/03 01:10:01;;;;;;;;;;;;;;;21.21;49.96;96350.13;627090;226;64388;-61
2023/04/03 01:12:30;;;;;;;;;;;;;;;21.22;51.49;96352.49;627087;226;62642;-61
2023/04/03 01:14:59;;;;;;;;;;;;;;;21.21;51.28;96352.80;627114;226;64602;-61
2023/04/03 01:17:31;;;;;;;;;;;;;;;21.21;50.92;96353.59;627085;226;64518;-61
2023/04/03 01:20:12;;;;;;;;;;;;;;;21.21;50.43;96350.91;627019;226;64983;-62
2023/04/03 01:22:53;;;;;;;;;;;;;;;21.21;50.78;96353.59;627052;226;64605;-60
2023/04/03 01:25:21;;;;;;;;;;;;;;;21.21;50.78;96361.60;626900;225;64887;-60
2023/04/03 01:27:48;;;;;;;;;;;;;;;21.20;51.17;96362.70;627069;226;64904;-59
2023/04/03 01:30:17;;;;;;;;;;;;;;;21.20;48.90;96367.25;627125;226;64491;-62
2023/04/03 01:32:45;;;;;;;;;;;;;;;21.19;50.70;96365.64;627048;226;64393;-62
2023/04/03 01:35:14;;;;;;;;;;;;;;;21.19;51.49;96369.11;627067;226;64884;-62
2023/04/03 01:37:41;;;;;;;;;;;;;;;21.18;51.10;96359.52;627043;226;64691;-62
2023/04/03 01:40:10;;;;;;;;;;;;;;;21.19;50.61;96362.97;627046;226;64298;-60
2023/04/03 01:42:38;;;;;;;;;;;;;;;21.19;50.70;96362.97;627080;226;64897;-60
2023/04/03 01:45:06;;;;;;;;;;;;;;;21.19;50.81;96370.98;627104;226;62332;-60
2023/04/03 01:47:34;;;;;;;;;;;;;;;21.18;51.54;96364.06;627051;226;64487;-60
2023/04/03 01:50:02;;;;;;;;;;;;;;;21.18;48.92;96369.41;627097;226;65030;-60
2023/04/03 01:52:31;;;;;;;;;;;;;;;21.18;51.03;96366.73;627027;226;64669;-60
2023/04/03 01:54:58;;;;;;;;;;;;;;;21.18;49.68;96369.41;627118;226;64494;-61
2023/04/03 01:57:26;;;;;;;;;;;;;;;21.18;51.84;96361.39;627097;226;62474;-61
2023/04/03 01:59:54;;;;;;;;;;;;;;;21.18;49.42;96369.41;627060;226;65051;-60
2023/04/03 02:02:22;;;;;;;;;;;;;;;21.17;49.44;96368.62;627090;226;65259;-61
2023/04/03 02:04:49;;;;;;;;;;;;;;;21.18;50.60;96366.73;627049;226;65061;-61
2023/04/03 02:07:17;;;;;;;;;;;;;;;21.17;52.48;96367.80;627052;226;65661;-60
2023/04/03 02:09:44;;;;;;;;;;;;;;;21.16;50.88;96359.00;627127;226;65008;-61
2023/04/03 02:12:12;;;;;;;;;;;;;;;21.16;51.04;96360.88;627057;226;65205;-61
2023/04/03 02:14:40;;;;;;;;;;;;;;;21.16;50.17;96361.67;627086;226;62113;-61
2023/04/03 02:17:09;;;;;;;;;;;;;;;21.16;51.46;96363.55;627069;225;43174;-61
2023/04/03 02:19:36;;;;;;;;;;;;;;;21.16;51.91;96372.36;627041;226;62953;-61
2023/04/03 02:22:04;;;;;;;;;;;;;;;21.15;49.72;96369.98;627121;226;62199;-61
2023/04/03 02:24:32;;;;;;;;;;;;;;;21.15;49.76;96375.33;627063;226;62211;-64
2023/04/03 02:27:00;;;;;;;;;;;;;;;21.15;51.24;96375.33;627060;226;64855;-64
2023/04/03 02:29:27;;;;;;;;;;;;;;;21.15;51.21;96378.00;627060;226;65026;-65
2023/04/03 02:31:55;;;;;;;;;;;;;;;21.14;51.50;96373.72;627039;226;65150;-64
2023/04/03 02:34:23;;;;;;;;;;;;;;;21.14;50.90;96368.38;627103;226;64948;-64
2023/04/03 02:36:51;;;;;;;;;;;;;;;21.13;51.24;96362.25;627062;226;61809;-65
2023/04/03 02:39:19;;;;;;;;;;;;;;;21.14;50.78;96368.38;627024;226;64202;-64
2023/04/03 02:41:48;;;;;;;;;;;;;;;21.13;51.77;96374.81;628070;226;65754;-64
2023/04/03 02:44:18;;;;;;;;;;;;;;;21.12;50.46;96375.91;628056;225;43490;-64
2023/04/03 02:46:46;;;;;;;;;;;;;;;21.12;50.60;96374.02;628073;226;63047;-64
2023/04/03 02:49:13;;;;;;;;;;;;;;;21.11;50.99;96372.42;628056;226;65270;-61
2023/04/03 02:51:41;;;;;;;;;;;;;;;21.11;52.21;96375.09;628064;226;66326;-61
2023/04/03 02:54:09;;;;;;;;;;;;;;;21.11;50.91;96372.42;628033;226;65780;-61
2023/04/03 02:56:38;;;;;;;;;;;;;;;21.12;50.55;96378.58;628062;226;64812;-61
2023/04/03 02:59:06;;;;;;;;;;;;;;;21.10;49.53;96375.39;627993;226;66723;-61
2023/04/03 03:01:35;;;;;;;;;;;;;;;21.10;51.85;96362.82;628058;226;63867;-61
2023/04/03 03:04:03;;;;;;;;;;;;;;;21.10;49.87;96364.70;628018;226;64988;-61
2023/04/03 03:06:31;;;;;;;;;;;;;;;21.10;51.13;96360.16;628061;226;62913;-61
2023/04/03 03:08:58;;;;;;;;;;;;;;;21.10;51.63;96359.36;628051;226;65461;-61
2023/04/03 03:11:26;;;;;;;;;;;;;;;21.09;48.93;96360.42;628026;226;65011;-61
2023/04/03 03:13:53;;;;;;;;;;;;;;;21.09;50.10;96357.75;628028;226;65225;-61
2023/04/03 03:16:21;;;;;;;;;;;;;;;21.09;51.75;96361.25;628083;226;62715;-61
2023/04/03 03:18:49;;;;;;;;;;;;;;;21.09;52.23;96360.42;628060;226;62742;-61
2023/04/03 03:21:16;;;;;;;;;;;;;;;21.08;50.32;96345.48;628026;226;66441;-61
2023/04/03 03:23:44;;;;;;;;;;;;;;;21.08;52.41;96348.95;628000;226;63329;-61
2023/04/03 03:26:11;;;;;;;;;;;;;;;21.08;50.33;96356.17;628003;226;63692;-61
2023/04/03 03:28:40;;;;;;;;;;;;;;;21.07;52.17;96347.38;628008;226;62989;-65
2023/04/03 03:31:08;;;;;;;;;;;;;;;21.07;51.13;96347.38;628008;226;63121;-64
2023/04/03 03:33:37;;;;;;;;;;;;;;;21.06;50.65;96341.23;628020;226;65102;-64
2023/04/03 03:36:05;;;;;;;;;;;;;;;21.06;50.45;96343.09;628009;226;65547;-64
2023/04/03 03:38:33;;;;;;;;;;;;;;;21.06;51.63;96341.23;628068;226;65178;-64
2023/04/03 03:41:01;;;;;;;;;;;;;;;21.05;50.98;96346.86;627333;226;62431;-63
2023/04/03 03:43:28;;;;;;;;;;;;;;;21.05;51.51;96339.62;627024;226;66153;-64
2023/04/03 03:45:56;;;;;;;;;;;;;;;21.05;51.76;96339.62;627042;226;65097;-64
2023/04/03 03:48:24;;;;;;;;;;;;;;;21.04;50.91;96339.94;626997;226;62456;-62
2023/04/03 03:50:52;;;;;;;;;;;;;;;21.05;51.98;96336.17;627024;226;66355;-61
2023/04/03 03:53:21;;;;;;;;;;;;;;;21.03;52.15;96341.81;627092;225;49739;-61
2023/04/03 03:55:50;;;;;;;;;;;;;;;21.04;50.83;96337.27;627030;226;63613;-61
2023/04/03 03:58:19;;;;;;;;;;;;;;;21.02;51.04;96337.53;626993;226;64140;-61
2023/04/03 04:00:47;;;;;;;;;;;;;;;21.03;50.75;96335.66;627031;226;65839;-61
2023/04/03 04:03:15;;;;;;;;;;;;;;;21.03;49.43;96344.48;627032;226;63090;-61
2023/04/03 04:05:43;;;;;;;;;;;;;;;21.02;51.89;96337.53;627061;226;65616;-61
2023/04/03 04:08:11;;;;;;;;;;;;;;;21.02;52.34;96345.55;627038;226;65147;-61
2023/04/03 04:10:39;;;;;;;;;;;;;;;21.02;51.93;96337.53;627020;226;64843;-61
2023/04/03 04:13:07;;;;;;;;;;;;;;;21.01;52.15;96338.62;626978;226;65390;-61
2023/04/03 04:15:35;;;;;;;;;;;;;;;21.02;49.27;96334.08;627050;226;62705;-62
2023/04/03 04:18:03;;;;;;;;;;;;;;;21.01;50.34;96335.95;627052;226;66221;-61
2023/04/03 04:20:31;;;;;;;;;;;;;;;21.01;51.28;96343.97;626961;226;65832;-61
2023/04/03 04:22:59;;;;;;;;;;;;;;;21.02;51.82;96347.44;627006;226;65555;-62
2023/04/03 04:25:27;;;;;;;;;;;;;;;21.01;52.56;96351.98;626989;226;62982;-61
2023/04/03 04:27:55;;;;;;;;;;;;;;;21.01;51.62;96351.20;627009;226;66474;-62
2023/04/03 04:30:22;;;;;;;;;;;;;;;21.01;53.24;96351.98;627063;226;62930;-61
2023/04/03 04:32:51;;;;;;;;;;;;;;;21.01;50.95;96353.87;627022;226;65724;-62
2023/04/03 04:35:18;;;;;;;;;;;;;;;21.03;50.05;96357.02;627008;226;66452;-62
2023/04/03 04:37:49;;;;;;;;;;;;;;;21.04;51.35;96358.63;626963;226;66210;-61
2023/04/03 04:40:17;;;;;;;;;;;;;;;21.04;51.35;96363.98;626960;226;62475;-60
2023/04/03 04:42:46;;;;;;;;;;;;;;;21.04;44.61;96371.98;627021;226;62768;-61
2023/04/03 04:45:14;;;;;;;;;;;;;;;21.09;44.26;96371.11;627093;226;64029;-61
2023/04/03 04:47:42;;;;;;;;;;;;;;;21.10;45.73;96372.72;626984;226;65682;-61
2023/04/03 04:50:11;;;;;;;;;;;;;;;21.11;46.81;96371.63;627015;226;66048;-61
2023/04/03 04:52:38;;;;;;;;;;;;;;;21.12;48.55;96375.91;627051;226;63096;-61
2023/04/03 04:55:07;;;;;;;;;;;;;;;21.14;45.69;96384.41;627064;226;64959;-60
2023/04/03 04:57:36;;;;;;;;;;;;;;;21.15;43.83;96376.12;627044;226;65131;-61
2023/04/03 05:00:04;;;;;;;;;;;;;;;21.17;43.58;96381.98;627017;226;63051;-61
2023/04/03 05:02:32;;;;;;;;;;;;;;;21.19;43.56;96384.34;626954;226;65015;-61
2023/04/03 05:04:59;;;;;;;;;;;;;;;21.22;43.42;96381.89;626994;226;66383;-61
2023/04/03 05:07:28;;;;;;;;;;;;;;;21.23;43.32;96383.50;626967;226;63580;-61
2023/04/03 05:09:56;;;;;;;;;;;;;;;21.25;43.50;96377.84;626997;226;65617;-61
2023/04/03 05:12:23;;;;;;;;;;;;;;;21.27;43.31;96375.69;627032;226;62762;-60
2023/04/03 05:14:53;;;;;;;;;;;;;;;21.28;43.50;96383.43;627025;225;43074;-61
2023/04/03 05:17:20;;;;;;;;;;;;;;;21.31;43.56;96389.27;627021;226;65737;-61
2023/04/03 05:19:50;;;;;;;;;;;;;;;21.33;43.12;96382.55;627070;225;42787;-61
2023/04/03 05:22:18;;;;;;;;;;;;;;;21.36;43.03;96386.52;627050;226;62671;-61
2023/04/03 05:24:45;;;;;;;;;;;;;;;21.38;42.83;96395.87;627059;226;65090;-61
2023/04/03 05:27:13;;;;;;;;;;;;;;;21.40;42.71;96388.37;626935;226;65580;-61
2023/04/03 05:29:43;;;;;;;;;;;;;;;21.43;43.83;96392.34;627050;225;43895;-61
2023/04/03 05:32:11;;;;;;;;;;;;;;;21.45;42.73;96399.00;626984;226;63660;-60
2023/04/03 05:34:39;;;;;;;;;;;;;;;21.46;42.80;96395.23;626970;226;65426;-60
2023/04/03 05:37:06;;;;;;;;;;;;;;;21.49;43.00;96396.53;627045;226;65140;-61
2023/04/03 05:39:35;;;;;;;;;;;;;;;21.52;42.96;96400.52;626696;226;62449;-63
2023/04/03 05:42:03;;;;;;;;;;;;;;;21.55;42.88;96395.37;624726;227;66183;-61
2023/04/03 05:44:30;;;;;;;;;;;;;;;21.57;42.89;96400.45;624658;227;65045;-61
2023/04/03 05:47:00;;;;;;;;;;;;;;;21.60;42.88;96397.19;624716;227;65755;-61
2023/04/03 05:49:28;;;;;;;;;;;;;;;21.63;42.88;96388.58;624607;227;64717;-62
2023/04/03 05:51:56;;;;;;;;;;;;;;;21.65;42.83;96379.19;624736;227;64951;-62
2023/04/03 05:54:26;;;;;;;;;;;;;;;21.67;42.85;96370.89;624020;227;65650;-63
2023/04/03 05:56:56;;;;;;;;;;;;;;;21.69;42.50;96372.19;623863;225;43849;-65
2023/04/03 05:59:24;;;;;;;;;;;;;;;21.72;42.39;96379.63;624716;227;65620;-66
2023/04/03 06:01:53;;;;;;;;;;;;;;;21.74;42.61;96373.97;624456;227;65009;-66
2023/04/03 06:04:21;;;;;;;;;;;;;;;21.78;42.44;96374.20;621124;227;65713;-65
2023/04/03 06:06:57;;;;;;;;;;;;;;;21.79;42.45;96379.25;617547;230;65336;-66
2023/04/03 06:09:28;;;;;;;;;;;;;;;21.83;42.40;96382.16;617361;230;65131;-65
2023/04/03 06:11:58;;;;;;;;;;;;;;;21.84;42.26;96381.84;617556;230;61875;-65
2023/04/03 06:14:26;;;;;;;;;;;;;;;21.87;42.30;96381.27;617319;230;63136;-65
2023/04/03 06:16:54;;;;;;;;;;;;;;;21.89;42.26;96381.77;617462;230;65835;-65
2023/04/03 06:19:22;;;;;;;;;;;;;;;21.91;42.10;96384.95;617527;230;65664;-65
2023/04/03 06:21:51;;;;;;;;;;;;;;;21.94;42.18;96384.38;617592;228;42556;-65
2023/04/03 06:24:21;;;;;;;;;;;;;;;21.96;42.10;96394.77;617469;230;64954;-65
2023/04/03 06:26:49;;;;;;;;;;;;;;;21.98;42.07;96384.57;617512;230;65671;-61
2023/04/03 06:29:17;;;;;;;;;;;;;;;22.01;42.27;96380.52;617473;227;63029;-62
2023/04/03 06:31:45;;;;;;;;;;;;;;;22.03;42.24;96375.67;617362;230;62938;-64
2023/04/03 06:34:13;;;;;;;;;;;;;;;22.05;42.00;96385.00;617558;230;65673;-62
2023/04/03 06:36:40;;;;;;;;;;;;;;;22.07;41.94;96380.16;617472;230;65146;-62
2023/04/03 06:39:09;;;;;;;;;;;;;;;22.08;42.06;96383.63;617405;230;64987;-63
2023/04/03 06:41:37;;;;;;;;;;;;;;;22.11;42.02;96381.15;619494;229;63179;-67
2023/04/03 06:44:05;;;;;;;;;;;;;;;22.12;42.09;96377.38;619772;229;65331;-64
2023/04/03 06:46:32;;;;;;;;;;;;;;;22.15;42.08;96387.52;619607;229;64996;-62
2023/04/03 06:49:00;;;;;;;;;;;;;;;22.16;42.10;96388.30;618783;226;65381;-63
2023/04/03 06:51:28;;;;;;;;;;;;;;;22.16;41.85;96386.42;619714;229;65197;-62
2023/04/03 06:53:57;;;;;;;;;;;;;;;22.17;41.79;96385.32;619686;229;65030;-65
2023/04/03 06:56:26;;;;;;;;;;;;;;;22.21;41.65;96400.82;619810;229;64123;-63
2023/04/03 06:58:56;;;;;;;;;;;;;;;22.22;41.46;96392.52;619811;229;64968;-64
2023/04/03 07:01:26;;;;;;;;;;;;;;;22.26;41.36;96395.38;619760;229;65937;-64
2023/04/03 07:03:53;;;;;;;;;;;;;;;22.27;41.24;96389.75;619784;229;63950;-62
2023/04/03 07:06:21;;;;;;;;;;;;;;;22.30;41.30;96389.16;619699;229;65553;-63
2023/04/03 07:08:49;;;;;;;;;;;;;;;22.34;41.03;96381.32;619751;229;65198;-64
2023/04/03 07:11:16;;;;;;;;;;;;;;;22.35;40.99;96381.05;619742;229;64252;-62
2023/04/03 07:13:44;;;;;;;;;;;;;;;22.38;41.07;96385.02;619735;229;65132;-63
2023/04/03 07:16:11;;;;;;;;;;;;;;;22.39;40.99;96387.38;619815;229;64861;-68
2023/04/03 07:18:39;;;;;;;;;;;;;;;22.42;40.93;96402.06;619826;229;65422;-68
2023/04/03 07:21:06;;;;;;;;;;;;;;;22.44;41.17;96399.89;619709;229;65163;-63
2023/04/03 07:23:34;;;;;;;;;;;;;;;22.46;40.94;96397.72;619740;229;62977;-67
2023/04/03 07:26:03;;;;;;;;;;;;;;;22.48;41.13;96394.73;619612;229;65106;-63
2023/04/03 07:28:30;;;;;;;;;;;;;;;22.52;41.06;96393.06;619480;229;65197;-63
2023/04/03 07:31:02;;;;;;;;;;;;;;;22.53;41.19;96397.32;619456;229;65090;-63
2023/04/03 07:33:30;;;;;;;;;;;;;;;22.52;41.33;96391.18;619639;229;66378;-65
2023/04/03 07:35:58;;;;;;;;;;;;;;;22.55;40.76;96387.12;619752;229;63187;-64
2023/04/03 07:38:26;;;;;;;;;;;;;;;22.57;40.87;96382.27;619811;229;65109;-65
2023/04/03 07:40:54;;;;;;;;;;;;;;;22.59;41.16;96383.56;616568;229;65687;-65
2023/04/03 07:43:22;;;;;;;;;;;;;;;22.61;40.97;96384.03;614731;231;65122;-64
2023/04/03 07:45:50;;;;;;;;;;;;;;;22.63;41.29;96374.93;614782;231;63096;-64
2023/04/03 07:48:19;;;;;;;;;;;;;;;22.66;41.15;96379.69;614785;231;65689;-64
2023/04/03 07:50:47;;;;;;;;;;;;;;;22.68;41.34;96377.52;614737;228;62974;-64
2023/04/03 07:53:15;;;;;;;;;;;;;;;22.69;41.29;96387.92;614669;231;64844;-63
2023/04/03 07:55:47;;;;;;;;;;;;;;;22.71;41.46;96387.63;614774;231;63324;-63
2023/04/03 07:58:16;;;;;;;;;;;;;;;22.72;41.23;96381.17;614807;231;65204;-65
2023/04/03 08:00:43;;;;;;;;;;;;;;;22.73;41.26;96391.60;614850;231;63057;-63
2023/04/03 08:03:12;;;;;;;;;;;;;;;22.75;41.15;96392.11;614738;231;65657;-62
2023/04/03 08:05:41;;;;;;;;;;;;;;;22.75;41.09;96385.94;614877;231;65239;-64
2023/04/03 08:08:09;;;;;;;;;;;;;;;22.76;41.13;96374.14;614823;231;62659;-67
2023/04/03 08:10:37;;;;;;;;;;;;;;;22.76;41.07;96360.75;614799;231;64091;-63
2023/04/03 08:13:05;;;;;;;;;;;;;;;22.78;41.08;96356.69;614875;231;63800;-64
2023/04/03 08:15:33;;;;;;;;;;;;;;;22.79;40.80;96357.48;614815;231;63013;-63
2023/04/03 08:18:01;;;;;;;;;;;;;;;22.80;40.84;96353.69;614798;231;65700;-64
2023/04/03 08:20:29;;;;;;;;;;;;;;;22.81;41.04;96357.98;614771;231;65545;-63
2023/04/03 08:22:56;;;;;;;;;;;;;;;22.82;40.93;96359.55;618523;228;62936;-64
2023/04/03 08:25:24;;;;;;;;;;;;;;;22.82;40.72;96349.63;621351;228;63183;-66
2023/04/03 08:27:52;;;;;;;;;;;;;;;22.85;40.66;96350.91;620386;228;63172;-65
2023/04/03 08:30:21;;;;;;;;;;;;;;;22.87;40.87;96345.27;614493;228;68216;-65
2023/04/03 08:32:51;;;;;;;;;;;;;;;22.88;40.88;96344.95;615102;228;64994;-67
2023/04/03 08:35:22;;;;;;;;;;;;;;;22.90;41.03;96347.35;622256;228;65961;-66
2023/04/03 08:37:49;;;;;;;;;;;;;;;22.92;41.35;96347.85;621932;228;65076;-65
2023/04/03 08:40:17;;;;;;;;;;;;;;;22.93;40.96;96336.81;621939;228;65126;-65
2023/04/03 08:42:49;;;;;;;;;;;;;;;22.95;41.11;96339.21;622148;228;65238;-66
2023/04/03 08:45:18;;;;;;;;;;;;;;;22.95;41.06;96336.53;622176;228;63041;-65
2023/04/03 08:47:56;;;;;;;;;;;;;;;22.98;41.14;96333.28;621669;227;45761;-66
2023/04/03 08:50:25;;;;;;;;;;;;;;;22.98;41.18;96336.75;622150;228;63949;-66
2023/04/03 08:52:53;;;;;;;;;;;;;;;22.99;41.35;96332.96;622147;228;65107;-64
2023/04/03 08:55:31;;;;;;;;;;;;;;;23.00;41.15;96337.25;622168;228;62862;-67
2023/04/03 08:58:01;;;;;;;;;;;;;;;23.01;41.29;96330.00;621907;228;65215;-65
2023/04/03 09:00:30;;;;;;;;;;;;;;;23.04;41.45;96329.39;622238;228;62915;-65
2023/04/03 09:02:58;;;;;;;;;;;;;;;23.04;41.74;96321.35;622191;228;65257;-66
2023/04/03 09:05:37;;;;;;;;;;;;;;;23.05;41.45;96320.25;622210;228;65179;-65
2023/04/03 09:08:06;;;;;;;;;;;;;;;23.06;41.48;96319.17;622087;228;64881;-65
2023/04/03 09:10:35;;;;;;;;;;;;;;;23.07;41.52;96325.32;616904;228;63172;-64
2023/04/03 09:13:07;;;;;;;;;;;;;;;23.07;41.74;96323.42;621749;228;63155;-65
2023/04/03 09:15:35;;;;;;;;;;;;;;;23.09;41.88;96323.14;622193;228;63669;-63
2023/04/03 09:18:16;;;;;;;;;;;;;;;23.10;41.86;96314.78;622242;228;65412;-64
2023/04/03 09:20:48;;;;;;;;;;;;;;;23.11;41.72;96310.20;622012;228;65211;-64
2023/04/03 09:23:30;;;;;;;;;;;;;;;23.10;41.77;96309.42;619525;227;65066;-64
2023/04/03 09:26:05;;;;;;;;;;;;;;;23.12;41.60;96312.60;619706;229;65771;-63
2023/04/03 09:28:35;;;;;;;;;;;;;;;23.12;41.60;96307.23;619736;229;62784;-63
2023/04/03 09:31:02;;;;;;;;;;;;;;;23.14;41.43;96299.70;619454;227;65065;-62
2023/04/03 09:33:30;;;;;;;;;;;;;;;23.15;41.31;96301.27;619699;229;65430;-63
2023/04/03 09:35:58;;;;;;;;;;;;;;;23.17;41.45;96299.09;619543;229;63642;-63
2023/04/03 09:38:26;;;;;;;;;;;;;;;23.18;41.32;96291.84;619716;229;63038;-64
2023/04/03 09:41:04;;;;;;;;;;;;;;;23.19;41.15;96286.19;618360;229;65627;-64
2023/04/03 09:43:34;;;;;;;;;;;;;;;23.21;41.80;96292.02;617549;230;65199;-64
2023/04/03 09:46:20;;;;;;;;;;;;;;;23.22;41.10;96293.62;617544;230;64871;-64
2023/04/03 09:48:51;;;;;;;;;;;;;;;23.22;41.38;96301.66;617576;230;65307;-63
2023/04/03 09:51:19;;;;;;;;;;;;;;;23.24;41.09;96290.63;617503;230;63760;-61
2023/04/03 09:53:46;;;;;;;;;;;;;;;23.26;41.59;96288.44;617568;230;64941;-61
2023/04/03 09:56:21;;;;;;;;;;;;;;;23.28;41.73;96288.15;617578;230;65012;-61
2023/04/03 09:58:51;;;;;;;;;;;;;;;23.29;41.20;96285.15;617567;230;62766;-61
2023/04/03 10:01:32;;;;;;;;;;;;;;;23.30;41.22;96291.30;617474;230;65044;-61
2023/04/03 10:04:07;;;;;;;;;;;;;;;23.31;41.21;96282.97;617505;230;65517;-66
2023/04/03 10:06:50;;;;;;;;;;;;;;;23.32;41.50;96279.17;615466;230;65377;-64
2023/04/03 10:09:20;;;;;;;;;;;;;;;23.33;41.29;96279.99;617556;230;63245;-66
2023/04/03 10:12:05;;;;;;;;;;;;;;;23.35;41.77;96285.82;617560;230;64958;-67
2023/04/03 10:14:51;;;;;;;;;;;;;;;23.34;41.43;96271.63;617558;230;64931;-67
2023/04/03 10:17:23;;;;;;;;;;;;;;;23.36;41.20;96263.30;621070;227;65163;-65
2023/04/03 10:19:56;;;;;;;;;;;;;;;23.37;42.01;96262.97;624163;227;63438;-65
2023/04/03 10:22:31;;;;;;;;;;;;;;;23.37;41.06;96259.50;624289;227;65364;-64
2023/04/03 10:25:00;;;;;;;;;;;;;;;23.38;41.19;96256.53;624265;227;63145;-64
2023/04/03 10:27:29;;;;;;;;;;;;;;;23.39;41.78;96246.59;624137;227;65369;-65
2023/04/03 10:30:15;;;;;;;;;;;;;;;23.40;41.34;96245.48;624098;227;65172;-65
2023/04/03 10:32:44;;;;;;;;;;;;;;;23.40;42.37;96242.80;624204;227;63022;-66
2023/04/03 10:35:13;;;;;;;;;;;;;;;23.41;41.37;96245.20;624063;227;63524;-65
2023/04/03 10:37:42;;;;;;;;;;;;;;;23.41;41.42;96244.41;623842;227;65298;-65
2023/04/03 10:40:22;;;;;;;;;;;;;;;23.42;40.84;96252.13;622377;227;63183;-66
2023/04/03 10:42:57;;;;;;;;;;;;;;;23.42;40.78;96243.30;618326;228;62919;-65
2023/04/03 10:45:37;;;;;;;;;;;;;;;23.44;42.93;96233.07;621340;228;64751;-65
2023/04/03 10:48:06;;;;;;;;;;;;;;;23.43;40.87;96224.20;622032;228;65325;-66
2023/04/03 10:50:38;;;;;;;;;;;;;;;23.45;42.90;96226.59;622145;228;63629;-65
2023/04/03 10:53:14;;;;;;;;;;;;;;;23.45;42.26;96224.70;621846;228;65471;-62
2023/04/03 10:55:43;;;;;;;;;;;;;;;23.44;40.69;96225.81;622065;228;65111;-63
2023/04/03 10:58:12;;;;;;;;;;;;;;;23.48;40.74;96216.05;622222;228;63450;-64
2023/04/03 11:00:41;;;;;;;;;;;;;;;23.49;41.04;96220.33;621742;228;65339;-65
2023/04/03 11:03:10;;;;;;;;;;;;;;;23.51;41.15;96220.00;621896;228;63165;-62
2023/04/03 11:05:40;;;;;;;;;;;;;;;23.53;41.23;96217.03;620234;228;63323;-64
2023/04/03 11:08:26;;;;;;;;;;;;;;;23.54;40.90;96211.34;622098;228;62907;-64
2023/04/03 11:10:55;;;;;;;;;;;;;;;23.56;41.65;96216.41;622176;228;65106;-66
2023/04/03 11:13:26;;;;;;;;;;;;;;;23.57;40.88;96215.30;622088;228;62914;-66
2023/04/03 11:15:55;;;;;;;;;;;;;;;23.58;40.62;96206.18;622006;228;63030;-66
2023/04/03 11:18:24;;;;;;;;;;;;;;;23.59;41.02;96208.53;622202;228;65052;-66
2023/04/03 11:20:55;;;;;;;;;;;;;;;23.60;40.74;96212.83;622146;228;66751;-64
2023/04/03 11:23:30;;;;;;;;;;;;;;;23.61;42.61;96211.71;621163;228;65135;-65
2023/04/03 11:25:56;;;;;;;;;;;;;;;23.62;41.15;96210.60;621543;228;65079;-64
2023/04/03 11:28:24;;;;;;;;;;;;;;;23.61;41.12;96209.03;621972;228;65438;-64
2023/04/03 11:31:09;;;;;;;;;;;;;;;23.61;40.81;96206.34;621715;228;63229;-64
2023/04/03 11:33:38;;;;;;;;;;;;;;;23.63;41.07;96211.42;618400;228;65119;-63
2023/04/03 11:36:07;;;;;;;;;;;;;;;23.64;41.51;96204.95;618025;228;65218;-64
2023/04/03 11:38:39;;;;;;;;;;;;;;;23.64;40.80;96199.58;618602;228;65523;-64
2023/04/03 11:41:07;;;;;;;;;;;;;;;23.65;41.29;96196.60;617601;228;63043;-64
2023/04/03 11:43:35;;;;;;;;;;;;;;;23.65;40.24;96198.47;617496;230;65413;-64
2023/04/03 11:46:04;;;;;;;;;;;;;;;23.66;40.47;96200.86;617456;230;63167;-64
2023/04/03 11:48:33;;;;;;;;;;;;;;;23.66;42.23;96198.17;617513;229;65111;-64
2023/04/03 11:51:02;;;;;;;;;;;;;;;23.67;41.19;96199.75;617483;230;65434;-64
2023/04/03 11:53:34;;;;;;;;;;;;;;;23.68;40.93;96209.39;617551;230;62806;-64
2023/04/03 11:56:03;;;;;;;;;;;;;;;23.69;41.12;96202.13;617506;228;65012;-65
2023/04/03 11:58:34;;;;;;;;;;;;;;;23.70;40.77;96211.75;617545;229;63140;-68
2023/04/03 12:01:03;;;;;;;;;;;;;;;23.72;40.67;96203.44;617532;230;62682;-66
2023/04/03 12:03:36;;;;;;;;;;;;;;;23.73;40.25;96213.06;617600;230;62878;-66
2023/04/03 12:06:18;;;;;;;;;;;;;;;23.73;40.62;96219.21;613244;230;65499;-63
2023/04/03 12:08:43;;;;;;;;;;;;;;;23.74;40.14;96214.66;616819;228;65668;-65
2023/04/03 12:11:12;;;;;;;;;;;;;;;23.75;40.67;96216.23;617521;230;65174;-64
2023/04/03 12:13:51;;;;;;;;;;;;;;;23.75;40.39;96211.66;617530;230;65573;-66
2023/04/03 12:16:23;;;;;;;;;;;;;;;23.76;40.11;96207.08;617571;230;63225;-70
2023/04/03 12:18:53;;;;;;;;;;;;;;;23.78;42.02;96220.98;617644;230;62918;-67
2023/04/03 12:21:25;;;;;;;;;;;;;;;23.78;40.29;96219.08;617521;230;63431;-62
2023/04/03 12:24:03;;;;;;;;;;;;;;;23.80;40.07;96216.11;617182;230;65091;-65
2023/04/03 12:26:34;;;;;;;;;;;;;;;23.80;41.12;96213.42;617371;227;46202;-66
2023/04/03 12:29:04;;;;;;;;;;;;;;;23.80;40.16;96214.21;617457;228;62952;-64
2023/04/03 12:31:33;;;;;;;;;;;;;;;23.80;40.24;96210.74;617304;230;65176;-63
2023/04/03 12:34:01;;;;;;;;;;;;;;;23.80;40.36;96205.37;617510;228;65714;-63
2023/04/03 12:36:31;;;;;;;;;;;;;;;23.79;39.82;96207.27;617489;228;65744;-62
2023/04/03 12:39:17;;;;;;;;;;;;;;;23.80;40.55;96205.37;617542;228;65187;-64
2023/04/03 12:41:54;;;;;;;;;;;;;;;23.80;39.54;96200.01;619669;228;65093;-64
2023/04/03 12:44:29;;;;;;;;;;;;;;;23.80;39.81;96202.69;619649;228;65429;-63
2023/04/03 12:46:58;;;;;;;;;;;;;;;23.80;39.57;96197.33;620636;226;65149;-61
2023/04/03 12:49:32;;;;;;;;;;;;;;;23.80;40.80;96197.33;620003;228;43859;-62
2023/04/03 12:52:00;;;;;;;;;;;;;;;23.81;39.36;96193.53;619906;229;65360;-60
2023/04/03 12:54:39;;;;;;;;;;;;;;;23.81;39.76;96188.95;619734;229;63084;-62
2023/04/03 12:57:11;;;;;;;;;;;;;;;23.82;39.58;96192.45;619382;229;65517;-62
2023/04/03 12:59:40;;;;;;;;;;;;;;;23.84;39.07;96190.23;619699;229;65689;-61